createdAt,value
2018-09-17T00:00:11.998Z,12.90
2018-09-17T00:01:11.988Z,12.90
2018-09-17T00:02:11.976Z,13.00
2018-09-17T00:03:11.973Z,13.40
2018-09-17T00:04:11.960Z,13.40
2018-09-17T00:05:11.954Z,13.00
2018-09-17T00:06:11.950Z,12.80
2018-09-17T00:07:11.938Z,13.00
2018-09-17T00:08:11.932Z,12.90
2018-09-17T00:09:11.928Z,12.70
2018-09-17T00:10:11.920Z,13.60
2018-09-17T00:11:11.916Z,13.40
2018-09-17T00:12:11.903Z,13.00
2018-09-17T00:13:11.901Z,13.60
2018-09-17T00:14:11.891Z,13.20
2018-09-17T00:15:11.889Z,14.10
2018-09-17T00:16:11.874Z,13.90
2018-09-17T00:17:11.873Z,13.70
2018-09-17T00:18:11.864Z,13.00
2018-09-17T00:19:11.851Z,13.00
2018-09-17T00:20:11.852Z,13.40
2018-09-17T00:21:11.838Z,14.40
2018-09-17T00:22:11.833Z,14.00
2018-09-17T00:23:11.822Z,13.60
2018-09-17T00:24:11.821Z,13.00
2018-09-17T00:25:11.808Z,13.50
2018-09-17T00:26:11.806Z,14.80
2018-09-17T00:27:11.795Z,14.70
2018-09-17T00:28:11.784Z,14.50
2018-09-17T00:29:11.778Z,14.80
2018-09-17T00:30:11.775Z,15.40
2018-09-17T00:31:11.763Z,14.00
2018-09-17T00:32:11.755Z,14.30
2018-09-17T00:33:11.752Z,14.40
2018-09-17T00:34:11.741Z,14.00
2018-09-17T00:35:11.733Z,13.50
2018-09-17T00:36:11.732Z,13.70
2018-09-17T00:37:11.725Z,13.70
2018-09-17T00:38:11.711Z,13.70
2018-09-17T00:39:11.703Z,14.60
2018-09-17T00:40:11.696Z,14.90
2018-09-17T00:41:11.688Z,14.80
2018-09-17T00:42:11.685Z,14.70
2018-09-17T00:43:11.674Z,13.90
2018-09-17T00:44:11.673Z,13.70
2018-09-17T00:45:11.660Z,14.20
2018-09-17T00:46:11.657Z,14.90
2018-09-17T00:47:11.649Z,15.20
2018-09-17T00:48:11.644Z,15.20
2018-09-17T00:49:11.631Z,14.50
2018-09-17T00:50:11.621Z,14.80
2018-09-17T00:51:11.620Z,13.90
2018-09-17T00:52:11.610Z,14.20
2018-09-17T00:53:11.606Z,14.70
2018-09-17T00:54:11.595Z,14.60
2018-09-17T00:55:11.592Z,14.70
2018-09-17T00:56:11.577Z,14.60
2018-09-17T00:57:11.575Z,14.70
2018-09-17T00:58:11.567Z,15.10
2018-09-17T00:59:11.554Z,14.50
2018-09-17T01:00:11.547Z,15.00
2018-09-17T01:01:11.541Z,15.30
2018-09-17T01:02:11.535Z,13.80
2018-09-17T01:03:11.528Z,15.00
2018-09-17T01:04:11.522Z,14.10
2018-09-17T01:05:11.515Z,15.10
2018-09-17T01:06:11.507Z,14.30
2018-09-17T01:07:11.495Z,15.80
2018-09-17T01:08:11.488Z,15.40
2018-09-17T01:09:11.481Z,15.50
2018-09-17T01:10:11.473Z,15.20
2018-09-17T01:11:11.471Z,15.50
2018-09-17T01:12:11.460Z,15.10
2018-09-17T01:13:11.453Z,15.60
2018-09-17T01:14:11.441Z,16.20
2018-09-17T01:15:11.438Z,16.40
2018-09-17T01:16:11.436Z,16.70
2018-09-17T01:17:11.422Z,16.80
2018-09-17T01:18:11.410Z,17.30
2018-09-17T01:19:11.404Z,17.30
2018-09-17T01:20:11.405Z,15.90
2018-09-17T01:21:11.393Z,16.60
2018-09-17T01:22:11.381Z,14.70
2018-09-17T01:23:11.374Z,15.20
2018-09-17T01:24:11.371Z,17.20
2018-09-17T01:25:11.365Z,16.80
2018-09-17T01:26:11.351Z,16.80
2018-09-17T01:27:11.347Z,17.60
2018-09-17T01:28:11.342Z,15.30
2018-09-17T01:29:11.336Z,17.10
2018-09-17T01:30:11.326Z,17.20
2018-09-17T01:31:11.313Z,16.60
2018-09-17T01:32:11.312Z,16.70
2018-09-17T01:33:11.305Z,16.60
2018-09-17T01:34:11.291Z,16.50
2018-09-17T01:35:11.289Z,16.70
2018-09-17T01:36:11.276Z,16.50
2018-09-17T01:37:11.267Z,15.70
2018-09-17T01:38:11.262Z,15.90
2018-09-17T01:39:11.253Z,16.70
2018-09-17T01:40:11.246Z,16.60
2018-09-17T01:41:11.239Z,16.20
2018-09-17T01:42:11.232Z,15.50
2018-09-17T01:43:11.224Z,16.40
2018-09-17T01:44:11.214Z,16.60
2018-09-17T01:45:11.212Z,16.50
2018-09-17T01:46:11.247Z,17.70
2018-09-17T01:47:11.191Z,17.40
2018-09-17T01:48:11.184Z,16.20
2018-09-17T01:49:11.185Z,17.10
2018-09-17T01:50:11.172Z,17.40
2018-09-17T01:51:11.165Z,17.60
2018-09-17T01:52:11.153Z,16.90
2018-09-17T01:53:11.145Z,17.40
2018-09-17T01:54:11.136Z,15.20
2018-09-17T01:55:11.129Z,15.90
2018-09-17T01:56:11.122Z,16.10
2018-09-17T01:57:11.113Z,16.20
2018-09-17T01:58:11.105Z,16.60
2018-09-17T01:59:11.097Z,15.80
2018-09-17T02:00:11.095Z,16.20
2018-09-17T02:01:11.083Z,16.00
2018-09-17T02:02:11.074Z,15.70
2018-09-17T02:03:11.071Z,15.60
2018-09-17T02:04:11.064Z,16.20
2018-09-17T02:05:11.052Z,16.40
2018-09-17T02:06:11.044Z,16.50
2018-09-17T02:07:11.036Z,16.70
2018-09-17T02:08:11.071Z,17.40
2018-09-17T02:09:11.050Z,16.40
2018-09-17T02:10:11.012Z,16.60
2018-09-17T02:11:11.005Z,15.90
2018-09-17T02:12:11.000Z,14.90
2018-09-17T02:13:10.991Z,16.30
2018-09-17T02:14:10.980Z,16.70
2018-09-17T02:15:10.975Z,17.20
2018-09-17T02:16:10.971Z,15.90
2018-09-17T02:17:10.965Z,16.50
2018-09-17T02:18:10.953Z,17.20
2018-09-17T02:19:10.942Z,16.40
2018-09-17T02:20:10.935Z,18.10
2018-09-17T02:21:10.928Z,17.60
2018-09-17T02:22:10.924Z,17.10
2018-09-17T02:23:10.912Z,17.60
2018-09-17T02:24:10.903Z,17.30
2018-09-17T02:25:10.902Z,18.20
2018-09-17T02:26:10.897Z,18.20
2018-09-17T02:27:10.879Z,18.50
2018-09-17T02:28:10.878Z,18.00
2018-09-17T02:29:10.864Z,19.80
2018-09-17T02:30:10.857Z,19.70
2018-09-17T02:31:10.851Z,19.70
2018-09-17T02:32:10.845Z,20.70
2018-09-17T02:33:10.832Z,20.90
2018-09-17T02:34:10.824Z,19.80
2018-09-17T02:35:10.822Z,18.80
2018-09-17T02:36:10.813Z,19.40
2018-09-17T02:37:10.802Z,20.90
2018-09-17T02:38:10.802Z,18.80
2018-09-17T02:39:10.790Z,19.20
2018-09-17T02:40:10.778Z,19.60
2018-09-17T02:41:10.773Z,19.00
2018-09-17T02:42:10.764Z,20.90
2018-09-17T02:43:10.760Z,20.80
2018-09-17T02:44:10.748Z,22.10
2018-09-17T02:45:10.742Z,23.20
2018-09-17T02:46:10.736Z,22.30
2018-09-17T02:47:10.725Z,22.20
2018-09-17T02:48:10.712Z,21.90
2018-09-17T02:49:10.711Z,23.40
2018-09-17T02:50:10.695Z,23.20
2018-09-17T02:51:10.695Z,21.30
2018-09-17T02:52:10.681Z,22.80
2018-09-17T02:53:10.677Z,25.00
2018-09-17T02:54:10.668Z,27.30
2018-09-17T02:55:10.656Z,28.30
2018-09-17T02:56:10.652Z,32.60
2018-09-17T02:57:10.642Z,26.70
2018-09-17T02:58:10.633Z,27.80
2018-09-17T02:59:10.626Z,31.60
2018-09-17T03:00:10.622Z,27.90
2018-09-17T03:01:10.615Z,25.40
2018-09-17T03:02:10.608Z,25.50
2018-09-17T03:03:10.601Z,29.80
2018-09-17T03:04:10.593Z,26.20
2018-09-17T03:05:10.577Z,24.20
2018-09-17T03:06:10.574Z,25.30
2018-09-17T03:07:10.567Z,25.00
2018-09-17T03:08:10.556Z,24.10
2018-09-17T03:09:10.548Z,25.00
2018-09-17T03:10:10.537Z,23.70
2018-09-17T03:11:10.534Z,25.90
2018-09-17T03:12:10.520Z,25.00
2018-09-17T03:13:10.513Z,24.40
2018-09-17T03:14:10.504Z,23.00
2018-09-17T03:15:10.499Z,22.70
2018-09-17T03:16:10.495Z,22.90
2018-09-17T03:17:10.485Z,22.90
2018-09-17T03:18:10.473Z,21.60
2018-09-17T03:19:10.470Z,22.40
2018-09-17T03:20:10.456Z,24.60
2018-09-17T03:21:10.449Z,25.30
2018-09-17T03:22:10.446Z,23.50
2018-09-17T03:23:10.437Z,23.40
2018-09-17T03:24:10.424Z,25.60
2018-09-17T03:25:10.422Z,28.10
2018-09-17T03:26:10.410Z,27.80
2018-09-17T03:27:10.400Z,24.70
2018-09-17T03:28:10.397Z,25.50
2018-09-17T03:29:10.385Z,23.80
2018-09-17T03:30:10.380Z,25.00
2018-09-17T03:31:10.369Z,23.10
2018-09-17T03:32:10.360Z,23.10
2018-09-17T03:33:10.354Z,23.40
2018-09-17T03:34:10.345Z,23.90
2018-09-17T03:35:10.340Z,24.10
2018-09-17T03:36:10.336Z,23.20
2018-09-17T03:37:10.336Z,24.40
2018-09-17T03:38:10.316Z,23.40
2018-09-17T03:39:10.311Z,22.20
2018-09-17T03:40:10.303Z,22.80
2018-09-17T03:41:10.292Z,21.10
2018-09-17T03:42:10.290Z,21.80
2018-09-17T03:43:10.278Z,23.30
2018-09-17T03:44:10.265Z,23.10
2018-09-17T03:45:10.261Z,22.40
2018-09-17T03:46:10.313Z,22.30
2018-09-17T03:47:10.243Z,22.10
2018-09-17T03:48:10.235Z,23.90
2018-09-17T03:49:10.232Z,22.80
2018-09-17T03:50:10.219Z,23.10
2018-09-17T03:51:10.212Z,23.40
2018-09-17T03:52:10.205Z,23.10
2018-09-17T03:53:10.194Z,21.40
2018-09-17T03:54:10.188Z,20.40
2018-09-17T03:55:10.186Z,20.00
2018-09-17T03:56:10.175Z,21.40
2018-09-17T03:57:10.168Z,21.20
2018-09-17T03:58:10.157Z,21.00
2018-09-17T03:59:10.150Z,19.90
2018-09-17T04:00:10.141Z,21.50
2018-09-17T04:01:10.137Z,21.90
2018-09-17T04:02:10.130Z,22.00
2018-09-17T04:03:10.114Z,23.00
2018-09-17T04:04:10.106Z,23.70
2018-09-17T04:05:10.102Z,23.50
2018-09-17T04:06:10.090Z,24.90
2018-09-17T04:07:10.083Z,24.10
2018-09-17T04:08:10.081Z,25.90
2018-09-17T04:09:10.072Z,24.90
2018-09-17T04:10:10.058Z,24.80
2018-09-17T04:11:10.051Z,23.50
2018-09-17T04:12:10.043Z,23.20
2018-09-17T04:13:10.035Z,23.70
2018-09-17T04:14:10.026Z,22.50
2018-09-17T04:15:10.018Z,22.20
2018-09-17T04:16:10.017Z,23.10
2018-09-17T04:17:10.002Z,21.80
2018-09-17T04:18:09.994Z,21.10
2018-09-17T04:19:09.986Z,23.40
2018-09-17T04:20:09.979Z,24.70
2018-09-17T04:21:09.974Z,23.30
2018-09-17T04:22:10.009Z,22.40
2018-09-17T04:23:09.955Z,27.30
2018-09-17T04:24:09.947Z,27.70
2018-09-17T04:25:09.939Z,24.70
2018-09-17T04:26:09.932Z,23.60
2018-09-17T04:27:09.928Z,24.40
2018-09-17T04:28:09.915Z,24.10
2018-09-17T04:29:09.910Z,25.90
2018-09-17T04:30:09.900Z,27.30
2018-09-17T04:31:09.893Z,32.30
2018-09-17T04:32:09.883Z,25.40
2018-09-17T04:33:09.918Z,24.70
2018-09-17T04:34:09.872Z,23.00
2018-09-17T04:35:09.862Z,22.70
2018-09-17T04:36:09.852Z,22.40
2018-09-17T04:37:09.847Z,21.40
2018-09-17T04:38:09.835Z,21.90
2018-09-17T04:39:09.824Z,21.10
2018-09-17T04:40:09.816Z,21.30
2018-09-17T04:41:09.814Z,21.60
2018-09-17T04:42:09.801Z,20.50
2018-09-17T04:43:09.794Z,20.70
2018-09-17T04:44:09.785Z,20.70
2018-09-17T04:45:09.783Z,20.60
2018-09-17T04:46:09.773Z,20.40
2018-09-17T04:47:09.766Z,21.20
2018-09-17T04:48:09.758Z,22.00
2018-09-17T04:49:09.746Z,20.20
2018-09-17T04:50:09.734Z,20.70
2018-09-17T04:51:09.726Z,21.10
2018-09-17T04:52:09.723Z,21.20
2018-09-17T04:53:09.710Z,19.90
2018-09-17T04:54:09.701Z,19.40
2018-09-17T04:55:09.698Z,18.60
2018-09-17T04:56:09.691Z,20.20
2018-09-17T04:57:09.722Z,21.00
2018-09-17T04:58:09.668Z,21.40
2018-09-17T04:59:09.666Z,22.40
2018-09-17T05:00:09.653Z,21.90
2018-09-17T05:01:09.647Z,22.50
2018-09-17T05:02:09.639Z,23.30
2018-09-17T05:03:09.635Z,23.70
2018-09-17T05:04:09.619Z,22.70
2018-09-17T05:05:09.620Z,22.70
2018-09-17T05:06:09.609Z,21.90
2018-09-17T05:07:09.602Z,22.80
2018-09-17T05:08:09.588Z,22.60
2018-09-17T05:09:09.583Z,21.30
2018-09-17T05:10:09.571Z,20.70
2018-09-17T05:11:09.566Z,21.40
2018-09-17T05:12:09.562Z,25.20
2018-09-17T05:13:09.624Z,25.30
2018-09-17T05:14:09.543Z,26.00
2018-09-17T05:15:09.529Z,24.90
2018-09-17T05:16:09.529Z,23.80
2018-09-17T05:17:09.513Z,23.10
2018-09-17T05:18:09.504Z,23.00
2018-09-17T05:19:09.501Z,23.30
2018-09-17T05:20:09.494Z,22.10
2018-09-17T05:21:09.481Z,21.50
2018-09-17T05:22:09.472Z,23.50
2018-09-17T05:23:09.467Z,22.80
2018-09-17T05:24:09.459Z,23.20
2018-09-17T05:25:09.454Z,24.30
2018-09-17T05:26:09.442Z,22.70
2018-09-17T05:27:09.431Z,22.50
2018-09-17T05:28:09.428Z,21.60
2018-09-17T05:29:09.418Z,20.30
2018-09-17T05:30:09.406Z,21.20
2018-09-17T05:31:09.398Z,18.90
2018-09-17T05:32:09.395Z,20.10
2018-09-17T05:33:09.386Z,21.00
2018-09-17T05:34:09.374Z,20.50
2018-09-17T05:35:09.453Z,22.80
2018-09-17T05:36:09.361Z,21.60
2018-09-17T05:37:09.352Z,22.80
2018-09-17T05:38:09.341Z,23.70
2018-09-17T05:39:09.337Z,24.40
2018-09-17T05:40:09.326Z,23.20
2018-09-17T05:41:09.320Z,24.40
2018-09-17T05:42:09.315Z,24.10
2018-09-17T05:43:09.301Z,23.80
2018-09-17T05:44:09.298Z,24.60
2018-09-17T05:45:09.287Z,26.20
2018-09-17T05:46:09.284Z,24.20
2018-09-17T05:47:09.275Z,24.50
2018-09-17T05:48:09.266Z,24.40
2018-09-17T05:49:09.256Z,23.80
2018-09-17T05:50:09.245Z,23.90
2018-09-17T05:51:09.237Z,23.80
2018-09-17T05:52:09.229Z,24.50
2018-09-17T05:53:09.225Z,23.10
2018-09-17T05:54:09.213Z,25.40
2018-09-17T05:55:09.206Z,25.10
2018-09-17T05:56:09.201Z,24.70
2018-09-17T05:57:09.196Z,24.60
2018-09-17T05:58:09.186Z,24.30
2018-09-17T05:59:09.173Z,24.20
2018-09-17T06:00:09.172Z,24.00
2018-09-17T06:01:09.160Z,23.40
2018-09-17T06:02:09.152Z,24.50
2018-09-17T06:03:09.145Z,23.80
2018-09-17T06:04:09.142Z,22.60
2018-09-17T06:05:09.126Z,24.70
2018-09-17T06:06:09.179Z,23.50
2018-09-17T06:07:09.266Z,23.20
2018-09-17T06:08:09.102Z,24.40
2018-09-17T06:09:09.095Z,22.60
2018-09-17T06:10:09.088Z,24.30
2018-09-17T06:11:09.214Z,24.90
2018-09-17T06:12:09.075Z,26.70
2018-09-17T06:13:09.070Z,24.40
2018-09-17T06:14:09.055Z,24.60
2018-09-17T06:15:09.053Z,24.80
2018-09-17T06:16:09.041Z,23.90
2018-09-17T06:17:09.030Z,24.40
2018-09-17T06:18:09.023Z,26.10
2018-09-17T06:19:09.015Z,25.60
2018-09-17T06:20:09.013Z,26.10
2018-09-17T06:21:09.007Z,26.90
2018-09-17T06:22:08.992Z,26.10
2018-09-17T06:23:08.994Z,25.20
2018-09-17T06:24:08.975Z,26.50
2018-09-17T06:25:08.975Z,28.30
2018-09-17T06:26:08.960Z,27.10
2018-09-17T06:27:08.952Z,25.20
2018-09-17T06:28:08.947Z,25.00
2018-09-17T06:29:08.943Z,24.60
2018-09-17T06:30:08.932Z,25.80
2018-09-17T06:31:08.921Z,25.80
2018-09-17T06:32:08.923Z,25.60
2018-09-17T06:33:08.909Z,24.80
2018-09-17T06:34:08.904Z,27.40
2018-09-17T06:35:08.890Z,26.70
2018-09-17T06:36:08.921Z,25.20
2018-09-17T06:37:08.876Z,29.60
2018-09-17T06:38:08.871Z,26.50
2018-09-17T06:39:08.859Z,28.90
2018-09-17T06:40:08.852Z,29.70
2018-09-17T06:41:08.845Z,30.20
2018-09-17T06:42:08.839Z,31.40
2018-09-17T06:43:08.834Z,27.80
2018-09-17T06:44:08.826Z,26.70
2018-09-17T06:45:08.823Z,24.40
2018-09-17T06:46:08.806Z,24.30
2018-09-17T06:47:08.803Z,23.90
2018-09-17T06:48:08.794Z,24.00
2018-09-17T06:49:08.786Z,24.20
2018-09-17T06:50:08.777Z,24.80
2018-09-17T06:51:08.773Z,24.70
2018-09-17T06:52:08.763Z,25.00
2018-09-17T06:53:08.760Z,25.70
2018-09-17T06:54:08.746Z,26.10
2018-09-17T06:55:08.741Z,25.10
2018-09-17T06:56:08.731Z,26.70
2018-09-17T06:57:08.722Z,27.40
2018-09-17T06:58:08.720Z,26.80
2018-09-17T06:59:08.710Z,26.40
2018-09-17T07:00:08.699Z,25.70
2018-09-17T07:01:08.692Z,26.70
2018-09-17T07:02:08.684Z,27.50
2018-09-17T07:03:08.682Z,25.10
2018-09-17T07:04:08.676Z,24.20
2018-09-17T07:05:08.663Z,25.00
2018-09-17T07:06:08.692Z,23.50
2018-09-17T07:07:08.648Z,23.90
2018-09-17T07:08:08.645Z,23.80
2018-09-17T07:09:08.644Z,23.10
2018-09-17T07:10:08.630Z,22.80
2018-09-17T07:11:08.618Z,25.00
2018-09-17T07:12:08.611Z,25.10
2018-09-17T07:13:08.603Z,24.30
2018-09-17T07:14:08.605Z,25.00
2018-09-17T07:15:08.614Z,26.00
2018-09-17T07:16:08.582Z,25.40
2018-09-17T07:17:08.576Z,24.70
2018-09-17T07:18:08.600Z,25.40
2018-09-17T07:19:08.566Z,25.90
2018-09-17T07:20:08.558Z,27.20
2018-09-17T07:21:08.550Z,25.30
2018-09-17T07:22:08.541Z,25.40
2018-09-17T07:23:08.538Z,25.70
2018-09-17T07:24:08.526Z,26.90
2018-09-17T07:25:08.522Z,26.20
2018-09-17T07:26:08.510Z,26.50
2018-09-17T07:27:08.503Z,27.70
2018-09-17T07:28:08.503Z,26.60
2018-09-17T07:29:08.496Z,26.50
2018-09-17T07:30:08.482Z,26.30
2018-09-17T07:31:08.482Z,25.60
2018-09-17T07:32:08.475Z,28.00
2018-09-17T07:33:08.468Z,26.30
2018-09-17T07:34:08.454Z,27.60
2018-09-17T07:35:08.450Z,27.60
2018-09-17T07:36:08.492Z,27.90
2018-09-17T07:37:08.441Z,27.90
2018-09-17T07:38:08.426Z,27.80
2018-09-17T07:39:08.430Z,29.90
2018-09-17T07:40:08.416Z,26.70
2018-09-17T07:41:08.407Z,25.90
2018-09-17T07:42:08.483Z,25.70
2018-09-17T07:43:08.397Z,28.70
2018-09-17T07:44:08.388Z,30.40
2018-09-17T07:45:08.389Z,29.70
2018-09-17T07:46:08.372Z,29.90
2018-09-17T07:47:08.366Z,28.90
2018-09-17T07:48:08.366Z,28.00
2018-09-17T07:49:08.353Z,28.00
2018-09-17T07:50:08.348Z,28.10
2018-09-17T07:51:08.338Z,27.50
2018-09-17T07:52:08.333Z,27.40
2018-09-17T07:53:08.372Z,28.60
2018-09-17T07:54:08.325Z,28.60
2018-09-17T07:55:08.322Z,29.30
2018-09-17T07:56:08.319Z,27.00
2018-09-17T07:57:08.307Z,28.20
2018-09-17T07:58:08.292Z,27.80
2018-09-17T07:59:08.286Z,26.90
2018-09-17T08:00:08.286Z,28.40
2018-09-17T08:01:08.274Z,28.50
2018-09-17T08:02:08.269Z,28.40
2018-09-17T08:03:08.260Z,29.00
2018-09-17T08:04:08.257Z,28.90
2018-09-17T08:05:08.254Z,28.50
2018-09-17T08:06:08.241Z,28.10
2018-09-17T08:07:08.241Z,29.30
2018-09-17T08:08:08.230Z,29.40
2018-09-17T08:09:08.227Z,28.20
2018-09-17T08:10:08.221Z,28.70
2018-09-17T08:11:08.212Z,29.50
2018-09-17T08:12:08.210Z,29.70
2018-09-17T08:13:08.200Z,30.30
2018-09-17T08:14:08.196Z,28.00
2018-09-17T08:15:08.189Z,28.70
2018-09-17T08:16:08.183Z,27.40
2018-09-17T08:17:08.188Z,29.70
2018-09-17T08:18:08.172Z,29.00
2018-09-17T08:19:08.172Z,28.10
2018-09-17T08:20:08.162Z,27.40
2018-09-17T08:21:08.160Z,27.70
2018-09-17T08:22:08.155Z,27.40
2018-09-17T08:23:08.145Z,27.70
2018-09-17T08:24:08.144Z,27.70
2018-09-17T08:25:08.140Z,26.90
2018-09-17T08:26:08.128Z,26.80
2018-09-17T08:27:08.126Z,25.20
2018-09-17T08:28:08.117Z,25.10
2018-09-17T08:29:08.112Z,24.30
2018-09-17T08:30:08.106Z,23.10
2018-09-17T08:31:08.108Z,23.80
2018-09-17T08:32:08.094Z,23.30
2018-09-17T08:33:08.089Z,24.50
2018-09-17T08:34:08.085Z,23.50
2018-09-17T08:35:08.079Z,22.60
2018-09-17T08:36:08.077Z,20.80
2018-09-17T08:37:08.068Z,21.60
2018-09-17T08:38:08.088Z,21.20
2018-09-17T08:39:08.055Z,20.20
2018-09-17T08:40:08.050Z,21.10
2018-09-17T08:41:08.051Z,22.40
2018-09-17T08:42:08.039Z,22.70
2018-09-17T08:43:08.038Z,25.40
2018-09-17T08:44:08.033Z,21.10
2018-09-17T08:45:08.024Z,21.30
2018-09-17T08:46:08.018Z,21.70
2018-09-17T08:47:08.020Z,22.90
2018-09-17T08:48:08.010Z,21.40
2018-09-17T08:49:08.003Z,21.50
2018-09-17T08:50:08.004Z,22.90
2018-09-17T08:51:07.992Z,24.70
2018-09-17T08:52:08.030Z,22.80
2018-09-17T08:53:08.015Z,22.70
2018-09-17T08:54:07.980Z,23.30
2018-09-17T08:55:07.977Z,24.30
2018-09-17T08:56:08.014Z,24.00
2018-09-17T08:57:07.965Z,24.20
2018-09-17T08:58:07.988Z,23.40
2018-09-17T08:59:07.954Z,23.70
2018-09-17T09:00:07.945Z,25.20
2018-09-17T09:01:07.942Z,26.10
2018-09-17T09:02:07.937Z,24.60
2018-09-17T09:03:07.931Z,25.70
2018-09-17T09:04:07.938Z,25.50
2018-09-17T09:05:07.976Z,27.40
2018-09-17T09:06:07.917Z,27.00
2018-09-17T09:07:07.916Z,27.10
2018-09-17T09:08:07.905Z,27.30
2018-09-17T09:09:07.900Z,24.50
2018-09-17T09:10:07.893Z,29.70
2018-09-17T09:11:07.891Z,27.90
2018-09-17T09:12:07.890Z,29.70
2018-09-17T09:13:07.882Z,27.20
2018-09-17T09:14:07.872Z,25.70
2018-09-17T09:15:07.871Z,26.30
2018-09-17T09:16:07.863Z,26.60
2018-09-17T09:17:07.859Z,27.30
2018-09-17T09:18:07.852Z,25.40
2018-09-17T09:19:07.853Z,23.00
2018-09-17T09:20:07.848Z,23.10
2018-09-17T09:21:07.843Z,23.00
2018-09-17T09:22:07.835Z,23.90
2018-09-17T09:23:07.825Z,23.60
2018-09-17T09:24:07.828Z,24.30
2018-09-17T09:25:07.815Z,21.80
2018-09-17T09:26:07.816Z,22.20
2018-09-17T09:27:07.814Z,21.50
2018-09-17T09:28:07.800Z,21.00
2018-09-17T09:29:07.800Z,19.70
2018-09-17T09:30:07.793Z,18.90
2018-09-17T09:31:07.793Z,19.70
2018-09-17T09:32:07.783Z,20.20
2018-09-17T09:33:07.783Z,20.20
2018-09-17T09:34:07.784Z,20.70
2018-09-17T09:35:07.773Z,22.40
2018-09-17T09:36:07.764Z,21.40
2018-09-17T09:37:07.763Z,21.90
2018-09-17T09:38:07.758Z,20.90
2018-09-17T09:39:07.752Z,18.80
2018-09-17T09:40:07.745Z,18.40
2018-09-17T09:41:07.747Z,19.00
2018-09-17T09:42:07.742Z,18.00
2018-09-17T09:43:07.734Z,18.90
2018-09-17T09:44:07.727Z,19.10
2018-09-17T09:45:07.721Z,18.40
2018-09-17T09:46:07.718Z,19.50
2018-09-17T09:47:07.714Z,18.50
2018-09-17T09:48:07.708Z,19.70
2018-09-17T09:49:07.704Z,19.50
2018-09-17T09:50:07.699Z,19.50
2018-09-17T09:51:07.695Z,17.90
2018-09-17T09:52:07.693Z,16.70
2018-09-17T09:53:07.688Z,18.60
2018-09-17T09:54:07.694Z,16.80
2018-09-17T09:55:07.685Z,16.90
2018-09-17T09:56:07.675Z,17.00
2018-09-17T09:57:07.669Z,17.00
2018-09-17T09:58:07.662Z,16.90
2018-09-17T09:59:07.660Z,16.50
2018-09-17T10:00:07.662Z,15.60
2018-09-17T10:01:07.652Z,16.00
2018-09-17T10:02:07.650Z,16.80
2018-09-17T10:03:07.649Z,16.50
2018-09-17T10:04:07.643Z,17.50
2018-09-17T10:05:07.635Z,17.30
2018-09-17T10:06:07.631Z,17.60
2018-09-17T10:07:07.630Z,17.10
2018-09-17T10:08:07.624Z,15.70
2018-09-17T10:09:07.624Z,15.50
2018-09-17T10:10:07.619Z,16.20
2018-09-17T10:11:07.615Z,15.50
2018-09-17T10:12:07.612Z,15.30
2018-09-17T10:13:07.657Z,15.50
2018-09-17T10:14:07.604Z,15.30
2018-09-17T10:15:07.605Z,15.00
2018-09-17T10:16:07.593Z,13.90
2018-09-17T10:17:07.590Z,14.30
2018-09-17T10:18:07.594Z,14.10
2018-09-17T10:19:07.589Z,14.40
2018-09-17T10:20:07.586Z,13.60
2018-09-17T10:21:07.580Z,13.30
2018-09-17T10:22:07.580Z,12.70
2018-09-17T10:23:07.576Z,13.60
2018-09-17T10:24:07.567Z,13.80
2018-09-17T10:25:07.567Z,13.50
2018-09-17T10:26:07.560Z,14.10
2018-09-17T10:27:07.559Z,14.00
2018-09-17T10:28:07.555Z,14.50
2018-09-17T10:29:07.551Z,13.60
2018-09-17T10:30:07.553Z,14.20
2018-09-17T10:31:07.552Z,13.30
2018-09-17T10:32:07.541Z,11.80
2018-09-17T10:33:07.541Z,12.90
2018-09-17T10:34:07.535Z,13.70
2018-09-17T10:35:07.536Z,12.40
2018-09-17T10:36:07.536Z,12.90
2018-09-17T10:37:07.532Z,12.70
2018-09-17T10:38:07.523Z,13.30
2018-09-17T10:39:07.526Z,13.00
2018-09-17T10:40:07.519Z,13.20
2018-09-17T10:41:07.516Z,12.10
2018-09-17T10:42:07.512Z,11.70
2018-09-17T10:43:07.514Z,12.10
2018-09-17T10:44:07.508Z,10.20
2018-09-17T10:45:07.512Z,10.20
2018-09-17T10:46:07.502Z,10.30
2018-09-17T10:47:07.500Z,9.50
2018-09-17T10:48:07.503Z,8.90
2018-09-17T10:49:07.501Z,8.90
2018-09-17T10:50:07.491Z,9.40
2018-09-17T10:51:07.493Z,9.50
2018-09-17T10:52:07.490Z,9.30
2018-09-17T10:53:07.490Z,9.40
2018-09-17T10:54:07.485Z,9.30
2018-09-17T10:55:07.479Z,9.00
2018-09-17T10:56:07.483Z,8.50
2018-09-17T10:57:07.478Z,8.60
2018-09-17T10:58:07.472Z,9.10
2018-09-17T10:59:07.470Z,8.50
2018-09-17T11:00:07.471Z,8.80
2018-09-17T11:01:07.468Z,8.80
2018-09-17T11:02:07.468Z,8.40
2018-09-17T11:03:07.460Z,8.10
2018-09-17T11:04:07.462Z,9.40
2018-09-17T11:05:07.459Z,7.70
2018-09-17T11:06:07.452Z,8.00
2018-09-17T11:07:07.451Z,8.70
2018-09-17T11:08:07.460Z,8.10
2018-09-17T11:09:07.451Z,8.10
2018-09-17T11:10:07.452Z,8.30
2018-09-17T11:11:07.443Z,9.30
2018-09-17T11:12:07.445Z,8.70
2018-09-17T11:13:07.445Z,8.40
2018-09-17T11:14:07.440Z,8.40
2018-09-17T11:15:07.438Z,9.10
2018-09-17T11:16:07.439Z,8.70
2018-09-17T11:17:07.435Z,9.00
2018-09-17T11:18:07.436Z,8.70
2018-09-17T11:19:07.431Z,8.40
2018-09-17T11:20:07.426Z,8.50
2018-09-17T11:21:07.424Z,9.30
2018-09-17T11:22:07.421Z,8.20
2018-09-17T11:23:07.420Z,8.90
2018-09-17T11:24:07.420Z,8.80
2018-09-17T11:25:07.458Z,8.60
2018-09-17T11:26:07.415Z,7.80
2018-09-17T11:27:07.419Z,8.20
2018-09-17T11:28:07.416Z,7.90
2018-09-17T11:29:07.417Z,7.90
2018-09-17T11:30:07.407Z,7.10
2018-09-17T11:31:07.407Z,7.00
2018-09-17T11:32:07.419Z,8.10
2018-09-17T11:33:07.404Z,8.10
2018-09-17T11:34:07.401Z,8.00
2018-09-17T11:35:07.400Z,7.30
2018-09-17T11:36:07.400Z,7.20
2018-09-17T11:37:07.397Z,6.60
2018-09-17T11:38:07.395Z,7.40
2018-09-17T11:39:07.396Z,7.30
2018-09-17T11:40:07.397Z,7.10
2018-09-17T11:41:07.393Z,7.10
2018-09-17T11:42:07.396Z,6.50
2018-09-17T11:43:07.390Z,6.90
2018-09-17T11:44:07.391Z,6.80
2018-09-17T11:45:07.387Z,5.60
2018-09-17T11:46:07.381Z,6.00
2018-09-17T11:47:07.385Z,6.70
2018-09-17T11:48:07.431Z,6.70
2018-09-17T11:49:07.377Z,6.60
2018-09-17T11:50:07.374Z,6.10
2018-09-17T11:51:07.374Z,5.60
2018-09-17T11:52:07.372Z,6.60
2018-09-17T11:53:07.449Z,6.10
2018-09-17T11:54:07.391Z,6.30
2018-09-17T11:55:07.377Z,6.40
2018-09-17T11:56:07.367Z,6.20
2018-09-17T11:57:07.365Z,6.00
2018-09-17T11:58:07.367Z,6.30
2018-09-17T11:59:07.363Z,5.60
2018-09-17T12:00:07.359Z,5.70
2018-09-17T12:01:07.358Z,5.20
2018-09-17T12:02:07.391Z,5.00
2018-09-17T12:03:07.358Z,5.60
2018-09-17T12:04:07.355Z,5.70
2018-09-17T12:05:07.360Z,5.30
2018-09-17T12:06:07.356Z,5.20
2018-09-17T12:07:07.352Z,4.90
2018-09-17T12:08:07.346Z,5.00
2018-09-17T12:09:07.375Z,5.80
2018-09-17T12:10:07.345Z,5.80
2018-09-17T12:11:07.342Z,5.80
2018-09-17T12:12:07.340Z,5.90
2018-09-17T12:13:07.346Z,5.70
2018-09-17T12:14:07.340Z,6.10
2018-09-17T12:15:07.339Z,6.00
2018-09-17T12:16:07.339Z,6.50
2018-09-17T12:17:07.339Z,5.60
2018-09-17T12:18:07.331Z,6.40
2018-09-17T12:19:07.332Z,5.70
2018-09-17T12:20:07.335Z,5.70
2018-09-17T12:21:07.329Z,4.80
2018-09-17T12:22:07.334Z,4.30
2018-09-17T12:23:07.326Z,4.30
2018-09-17T12:24:07.325Z,4.50
2018-09-17T12:25:07.326Z,4.30
2018-09-17T12:26:07.322Z,4.60
2018-09-17T12:27:07.328Z,4.10
2018-09-17T12:28:07.326Z,4.10
2018-09-17T12:29:07.319Z,4.90
2018-09-17T12:30:07.323Z,5.00
2018-09-17T12:31:07.320Z,5.30
2018-09-17T12:32:07.317Z,5.30
2018-09-17T12:33:07.321Z,5.60
2018-09-17T12:34:07.315Z,5.20
2018-09-17T12:35:07.314Z,5.60
2018-09-17T12:36:07.316Z,5.50
2018-09-17T12:37:07.312Z,5.00
2018-09-17T12:38:07.312Z,5.20
2018-09-17T12:39:07.310Z,5.50
2018-09-17T12:40:07.316Z,5.10
2018-09-17T12:41:07.309Z,4.80
2018-09-17T12:42:07.312Z,5.00
2018-09-17T12:43:07.311Z,5.20
2018-09-17T12:44:07.305Z,5.10
2018-09-17T12:45:07.311Z,4.80
2018-09-17T12:46:07.303Z,4.80
2018-09-17T12:47:07.308Z,4.30
2018-09-17T12:48:07.309Z,4.60
2018-09-17T12:49:07.301Z,4.70
2018-09-17T12:50:07.299Z,4.80
2018-09-17T12:51:07.330Z,4.60
2018-09-17T12:52:07.298Z,4.80
2018-09-17T12:53:07.297Z,4.30
2018-09-17T12:54:07.299Z,4.10
2018-09-17T12:55:07.294Z,4.40
2018-09-17T12:56:07.301Z,4.60